createdAt,value
2023-05-13T00:00:48.858Z,0.00
2023-05-13T00:01:49.952Z,0.00
2023-05-13T00:02:49.897Z,0.00
2023-05-13T00:03:48.875Z,0.00
2023-05-13T00:04:48.766Z,0.00
2023-05-13T00:05:48.831Z,0.00
2023-05-13T00:06:48.766Z,0.00
2023-05-13T00:07:48.755Z,0.00
2023-05-13T00:08:48.754Z,0.00
2023-05-13T00:09:48.758Z,0.00
2023-05-13T00:10:48.765Z,0.00
2023-05-13T00:11:48.737Z,0.00
2023-05-13T00:12:48.756Z,0.00
2023-05-13T00:13:48.710Z,0.00
2023-05-13T00:14:48.718Z,0.00
2023-05-13T00:15:48.791Z,0.00
2023-05-13T00:16:48.720Z,0.00
2023-05-13T00:17:48.763Z,0.00
2023-05-13T00:18:48.741Z,0.00
2023-05-13T00:19:48.690Z,0.00
2023-05-13T00:20:48.662Z,0.00
2023-05-13T00:21:48.677Z,0.00
2023-05-13T00:22:48.688Z,0.00
2023-05-13T00:23:48.639Z,0.00
2023-05-13T00:24:48.631Z,0.00
2023-05-13T00:25:48.620Z,0.00
2023-05-13T00:26:48.637Z,0.00
2023-05-13T00:27:48.605Z,0.00
2023-05-13T00:28:48.634Z,0.00
2023-05-13T00:29:48.590Z,0.00
2023-05-13T00:30:48.605Z,0.00
2023-05-13T00:31:48.632Z,0.00
2023-05-13T00:32:48.657Z,0.00
2023-05-13T00:33:48.605Z,0.00
2023-05-13T00:34:48.574Z,0.00
2023-05-13T00:35:48.548Z,0.00
2023-05-13T00:36:48.582Z,0.00
2023-05-13T00:37:48.549Z,0.00
2023-05-13T00:38:48.533Z,0.00
2023-05-13T00:39:48.513Z,0.00
2023-05-13T00:40:48.522Z,0.00
2023-05-13T00:41:48.518Z,0.00
2023-05-13T00:42:48.523Z,0.00
2023-05-13T00:43:48.522Z,0.00
2023-05-13T00:44:48.751Z,0.00
2023-05-13T00:45:48.850Z,0.00
2023-05-13T00:46:49.233Z,0.00
2023-05-13T00:47:48.559Z,0.00
2023-05-13T00:48:48.768Z,0.00
2023-05-13T00:49:48.465Z,0.00
2023-05-13T00:50:48.448Z,0.00
2023-05-13T00:51:48.429Z,0.00
2023-05-13T00:52:48.685Z,0.00
2023-05-13T00:53:48.436Z,0.00
2023-05-13T00:54:48.384Z,0.00
2023-05-13T00:55:48.379Z,0.00
2023-05-13T00:56:49.379Z,0.00
2023-05-13T00:57:48.389Z,0.00
2023-05-13T00:58:48.382Z,0.00
2023-05-13T00:59:48.364Z,0.00
2023-05-13T01:00:48.398Z,0.00
2023-05-13T01:01:48.380Z,0.00
2023-05-13T01:02:48.456Z,0.00
2023-05-13T01:03:48.334Z,0.00
2023-05-13T01:04:49.324Z,0.00
2023-05-13T01:05:48.300Z,0.00
2023-05-13T01:06:48.372Z,0.00
2023-05-13T01:07:49.282Z,0.00
2023-05-13T01:08:48.283Z,0.00
2023-05-13T01:09:48.288Z,0.00
2023-05-13T01:10:48.287Z,0.00
2023-05-13T01:11:48.289Z,0.00
2023-05-13T01:12:48.345Z,0.00
2023-05-13T01:13:48.267Z,0.00
2023-05-13T01:14:48.241Z,0.00
2023-05-13T01:15:48.346Z,0.00
2023-05-13T01:16:48.354Z,0.00
2023-05-13T01:17:48.378Z,0.00
2023-05-13T01:18:48.285Z,0.00
2023-05-13T01:19:48.254Z,0.00
2023-05-13T01:20:48.227Z,0.00
2023-05-13T01:21:48.297Z,0.00
2023-05-13T01:22:48.242Z,0.00
2023-05-13T01:23:49.151Z,0.00
2023-05-13T01:24:48.234Z,0.00
2023-05-13T01:25:48.155Z,0.00
2023-05-13T01:26:48.139Z,0.00
2023-05-13T01:27:48.134Z,0.00
2023-05-13T01:28:48.116Z,0.00
2023-05-13T01:29:48.160Z,0.00
2023-05-13T01:30:48.109Z,0.00
2023-05-13T01:31:48.133Z,0.00
2023-05-13T01:32:48.118Z,0.00
2023-05-13T01:33:48.086Z,0.00
2023-05-13T01:34:48.073Z,0.00
2023-05-13T01:35:48.054Z,0.00
2023-05-13T01:36:48.080Z,0.00
2023-05-13T01:37:48.072Z,0.00
2023-05-13T01:38:48.042Z,0.00
2023-05-13T01:39:48.046Z,0.00
2023-05-13T01:40:48.073Z,0.00
2023-05-13T01:41:48.055Z,0.00
2023-05-13T01:42:48.001Z,0.00
2023-05-13T01:43:48.023Z,0.00
2023-05-13T01:44:48.003Z,0.00
2023-05-13T01:45:48.010Z,0.00
2023-05-13T01:46:48.049Z,0.00
2023-05-13T01:47:48.043Z,0.00
2023-05-13T01:48:48.008Z,0.00
2023-05-13T01:49:47.968Z,0.00
2023-05-13T01:50:47.959Z,0.00
2023-05-13T01:51:47.934Z,0.00
2023-05-13T01:52:47.932Z,0.00
2023-05-13T01:53:47.928Z,0.00
2023-05-13T01:54:47.925Z,0.00
2023-05-13T01:55:47.950Z,0.00
2023-05-13T01:56:47.922Z,0.00
2023-05-13T01:57:47.960Z,0.00
2023-05-13T01:58:47.911Z,0.00
2023-05-13T01:59:48.900Z,0.00
2023-05-13T02:00:47.879Z,0.00
2023-05-13T02:01:47.919Z,0.00
2023-05-13T02:02:47.906Z,0.00
2023-05-13T02:03:47.893Z,0.00
2023-05-13T02:04:47.856Z,0.00
2023-05-13T02:05:47.853Z,0.00
2023-05-13T02:06:47.858Z,0.00
2023-05-13T02:07:47.844Z,0.00
2023-05-13T02:08:47.817Z,0.00
2023-05-13T02:09:47.805Z,0.00
2023-05-13T02:10:47.794Z,0.00
2023-05-13T02:11:47.786Z,0.00
2023-05-13T02:12:47.825Z,0.00
2023-05-13T02:13:47.805Z,0.00
2023-05-13T02:14:47.771Z,0.00
2023-05-13T02:15:47.781Z,0.00
2023-05-13T02:16:47.892Z,0.00
2023-05-13T02:17:47.829Z,0.00
2023-05-13T02:18:47.819Z,0.00
2023-05-13T02:19:47.744Z,0.00
2023-05-13T02:20:47.755Z,0.00
2023-05-13T02:21:47.770Z,0.00
2023-05-13T02:22:47.727Z,0.00
2023-05-13T02:23:47.744Z,0.00
2023-05-13T02:24:47.729Z,0.00
2023-05-13T02:25:47.701Z,0.00
2023-05-13T02:26:47.697Z,0.00
2023-05-13T02:27:47.661Z,0.00
2023-05-13T02:28:47.680Z,0.00
2023-05-13T02:29:47.655Z,0.00
2023-05-13T02:30:47.638Z,0.00
2023-05-13T02:31:47.671Z,0.00
2023-05-13T02:32:47.704Z,0.00
2023-05-13T02:33:47.621Z,0.00
2023-05-13T02:34:48.702Z,0.00
2023-05-13T02:35:47.614Z,0.00
2023-05-13T02:36:47.613Z,0.00
2023-05-13T02:37:47.605Z,0.00
2023-05-13T02:38:47.594Z,0.00
2023-05-13T02:39:47.598Z,0.00
2023-05-13T02:40:47.600Z,0.00
2023-05-13T02:41:47.602Z,0.00
2023-05-13T02:42:47.557Z,0.00
2023-05-13T02:43:47.526Z,0.00
2023-05-13T02:44:47.555Z,0.00
2023-05-13T02:45:47.550Z,0.00
2023-05-13T02:46:47.527Z,0.00
2023-05-13T02:47:47.589Z,0.00
2023-05-13T02:48:47.557Z,0.00
2023-05-13T02:49:47.518Z,0.00
2023-05-13T02:50:47.521Z,0.00
2023-05-13T02:51:47.480Z,0.00
2023-05-13T02:52:47.474Z,0.00
2023-05-13T02:53:47.483Z,0.00
2023-05-13T02:54:47.495Z,0.00
2023-05-13T02:55:47.473Z,0.00
2023-05-13T02:56:47.432Z,0.00
2023-05-13T02:57:47.439Z,0.00
2023-05-13T02:58:47.521Z,0.00
2023-05-13T02:59:47.453Z,0.00
2023-05-13T03:00:47.404Z,0.00
2023-05-13T03:01:47.506Z,0.00
2023-05-13T03:02:47.450Z,0.00
2023-05-13T03:03:47.449Z,0.00
2023-05-13T03:04:47.415Z,0.00
2023-05-13T03:05:47.418Z,0.00
2023-05-13T03:06:47.370Z,0.00
2023-05-13T03:07:47.379Z,0.00
2023-05-13T03:08:47.362Z,0.00
2023-05-13T03:09:47.392Z,0.00
2023-05-13T03:10:47.361Z,0.00
2023-05-13T03:11:47.376Z,0.00
2023-05-13T03:12:47.372Z,0.00
2023-05-13T03:13:47.313Z,0.00
2023-05-13T03:14:47.321Z,0.00
2023-05-13T03:15:47.321Z,0.00
2023-05-13T03:16:47.274Z,0.00
2023-05-13T03:17:47.338Z,0.00
2023-05-13T03:18:47.318Z,0.00
2023-05-13T03:19:47.303Z,0.00
2023-05-13T03:20:47.318Z,0.00
2023-05-13T03:21:47.309Z,0.00
2023-05-13T03:22:47.242Z,0.00
2023-05-13T03:23:47.257Z,0.00
2023-05-13T03:24:47.247Z,0.00
2023-05-13T03:25:47.248Z,0.00
2023-05-13T03:26:47.232Z,0.00
2023-05-13T03:27:47.239Z,0.00
2023-05-13T03:28:47.205Z,0.00
2023-05-13T03:29:47.223Z,0.00
2023-05-13T03:30:47.209Z,0.00
2023-05-13T03:31:47.275Z,0.00
2023-05-13T03:32:47.191Z,0.00
2023-05-13T03:33:47.187Z,0.00
2023-05-13T03:34:47.176Z,0.00
2023-05-13T03:35:47.197Z,0.00
2023-05-13T03:36:47.136Z,0.00
2023-05-13T03:37:47.138Z,0.00
2023-05-13T03:38:47.210Z,5.62
2023-05-13T03:39:47.111Z,5.62
2023-05-13T03:40:47.129Z,5.62
2023-05-13T03:41:47.090Z,5.62
2023-05-13T03:42:47.117Z,5.62
2023-05-13T03:43:47.067Z,5.62
2023-05-13T03:44:47.073Z,5.62
2023-05-13T03:45:47.103Z,5.62
2023-05-13T03:46:47.105Z,5.62
2023-05-13T04:03:09.789Z,16.88
2023-05-13T04:04:09.714Z,16.88
2023-05-13T04:05:10.866Z,16.88
2023-05-13T04:06:10.857Z,16.88
2023-05-13T04:07:10.860Z,22.50
2023-05-13T04:08:10.849Z,22.50
2023-05-13T04:09:10.807Z,22.50
2023-05-13T04:10:12.374Z,22.50
2023-05-13T04:11:10.823Z,28.12
2023-05-13T04:12:10.813Z,28.12
2023-05-13T04:13:10.804Z,28.12
2023-05-13T04:14:10.773Z,33.75
2023-05-13T04:15:10.788Z,33.75
2023-05-13T04:16:10.780Z,39.38
2023-05-13T04:17:10.941Z,45.00
2023-05-13T04:18:10.819Z,45.00
2023-05-13T04:19:10.827Z,45.00
2023-05-13T04:20:10.741Z,45.00
2023-05-13T04:21:10.725Z,50.62
2023-05-13T04:22:10.732Z,50.62
2023-05-13T04:23:10.729Z,50.62
2023-05-13T04:24:10.746Z,56.25
2023-05-13T04:25:10.696Z,56.25
2023-05-13T04:26:10.674Z,56.25
2023-05-13T04:27:10.684Z,61.88
2023-05-13T04:28:10.675Z,67.50
2023-05-13T04:29:11.689Z,67.50
2023-05-13T04:30:10.674Z,73.12
2023-05-13T04:31:10.664Z,73.12
2023-05-13T04:32:10.754Z,73.12
2023-05-13T04:33:10.689Z,78.75
2023-05-13T04:34:10.674Z,84.38
2023-05-13T04:35:10.655Z,84.38
2023-05-13T04:36:10.844Z,84.38
2023-05-13T04:37:10.657Z,84.38
2023-05-13T04:38:10.650Z,90.00
2023-05-13T04:39:10.608Z,90.00
2023-05-13T04:40:10.615Z,84.38
2023-05-13T04:41:10.621Z,78.75
2023-05-13T04:42:10.567Z,84.38
2023-05-13T04:43:10.576Z,90.00
2023-05-13T04:44:10.558Z,90.00
2023-05-13T04:45:10.588Z,90.00
2023-05-13T04:46:10.573Z,95.62
2023-05-13T04:47:10.509Z,101.25
2023-05-13T04:48:10.580Z,101.25
2023-05-13T04:49:10.501Z,106.88
2023-05-13T04:50:10.513Z,106.88
2023-05-13T04:51:10.511Z,129.38
2023-05-13T04:52:10.486Z,129.38
2023-05-13T04:53:10.490Z,123.75
2023-05-13T04:54:10.471Z,123.75
2023-05-13T04:55:10.509Z,129.38
2023-05-13T04:56:10.459Z,123.75
2023-05-13T04:57:10.460Z,112.50
2023-05-13T04:58:10.450Z,101.25
2023-05-13T04:59:10.430Z,95.62
2023-05-13T05:00:10.435Z,95.62
2023-05-13T05:01:11.350Z,95.62
2023-05-13T05:02:10.428Z,84.38
2023-05-13T05:03:10.443Z,78.75
2023-05-13T05:04:10.448Z,84.38
2023-05-13T05:05:10.404Z,78.75
2023-05-13T05:06:10.422Z,78.75
2023-05-13T05:07:10.394Z,78.75
2023-05-13T05:08:10.365Z,78.75
2023-05-13T05:09:10.355Z,78.75
2023-05-13T05:10:10.355Z,90.00
2023-05-13T05:11:10.427Z,101.25
2023-05-13T05:12:10.350Z,84.38
2023-05-13T05:13:10.345Z,73.12
2023-05-13T05:14:10.355Z,78.75
2023-05-13T05:15:10.346Z,84.38
2023-05-13T05:16:10.309Z,73.12
2023-05-13T05:17:10.350Z,78.75
2023-05-13T05:18:10.521Z,78.75
2023-05-13T05:19:10.358Z,73.12
2023-05-13T05:20:10.284Z,78.75
2023-05-13T05:21:10.279Z,84.38
2023-05-13T05:22:10.963Z,95.62
2023-05-13T05:23:10.295Z,95.62
2023-05-13T05:24:10.257Z,101.25
2023-05-13T05:25:11.297Z,106.88
2023-05-13T05:26:12.125Z,112.50
2023-05-13T05:27:11.224Z,118.12
2023-05-13T05:28:10.256Z,140.62
2023-05-13T05:29:10.264Z,180.00
2023-05-13T05:30:10.920Z,180.00
2023-05-13T05:31:10.227Z,180.00
2023-05-13T05:32:10.189Z,168.75
2023-05-13T05:33:10.192Z,151.88
2023-05-13T05:34:10.206Z,151.88
2023-05-13T05:35:10.226Z,191.25
2023-05-13T05:36:10.158Z,168.75
2023-05-13T05:37:10.152Z,157.50
2023-05-13T05:38:10.151Z,157.50
2023-05-13T05:39:10.147Z,163.12
2023-05-13T05:40:10.153Z,185.62
2023-05-13T05:41:10.154Z,174.38
2023-05-13T05:42:10.136Z,174.38
2023-05-13T05:43:10.119Z,180.00
2023-05-13T05:44:10.130Z,185.62
2023-05-13T05:45:10.103Z,196.88
2023-05-13T05:46:10.141Z,208.12
2023-05-13T05:47:10.116Z,275.62
2023-05-13T05:48:10.208Z,326.25
2023-05-13T05:49:10.073Z,348.75
2023-05-13T05:50:10.080Z,348.75
2023-05-13T05:51:10.063Z,320.62
2023-05-13T05:52:10.077Z,281.25
2023-05-13T05:53:10.059Z,281.25
2023-05-13T05:54:10.050Z,230.62
2023-05-13T05:55:10.036Z,236.25
2023-05-13T05:56:09.994Z,247.50
2023-05-13T05:57:10.096Z,247.50
2023-05-13T05:58:10.017Z,241.88
2023-05-13T05:59:10.767Z,241.88
2023-05-13T06:00:09.985Z,247.50
2023-05-13T06:01:09.971Z,241.88
2023-05-13T06:02:09.994Z,236.25
2023-05-13T06:03:10.125Z,225.00
2023-05-13T06:04:10.034Z,202.50
2023-05-13T06:05:09.956Z,191.25
2023-05-13T06:06:09.949Z,219.38
2023-05-13T06:07:09.975Z,270.00
2023-05-13T06:08:09.947Z,343.12
2023-05-13T06:09:09.961Z,500.62
2023-05-13T06:10:09.961Z,506.25
2023-05-13T06:11:09.904Z,348.75
2023-05-13T06:12:10.900Z,410.62
2023-05-13T06:13:09.901Z,298.12
2023-05-13T06:14:09.902Z,388.12
2023-05-13T06:15:09.879Z,933.75
2023-05-13T06:16:09.944Z,1389.38
2023-05-13T06:17:09.855Z,1192.50
2023-05-13T06:18:09.869Z,1496.25
2023-05-13T06:19:09.940Z,2160.00
2023-05-13T06:20:09.838Z,1490.62
2023-05-13T06:21:09.822Z,1417.50
2023-05-13T06:22:09.822Z,877.50
2023-05-13T06:23:09.814Z,708.75
2023-05-13T06:24:09.833Z,646.88
2023-05-13T06:25:09.800Z,714.38
2023-05-13T06:26:09.827Z,1794.38
2023-05-13T06:27:09.798Z,1541.25
2023-05-13T06:28:09.759Z,1451.25
2023-05-13T06:29:09.785Z,1209.38
2023-05-13T06:30:09.839Z,2936.25
2023-05-13T06:31:09.850Z,2790.00
2023-05-13T06:32:10.701Z,2835.00
2023-05-13T06:33:09.794Z,3121.88
2023-05-13T06:34:09.724Z,2508.75
2023-05-13T06:35:09.712Z,3301.88
2023-05-13T06:36:10.295Z,1884.38
2023-05-13T06:37:09.730Z,1389.38
2023-05-13T06:38:09.724Z,877.50
2023-05-13T06:39:09.674Z,798.75
2023-05-13T06:40:09.687Z,697.50
2023-05-13T06:41:09.733Z,669.38
2023-05-13T06:42:09.665Z,635.62
2023-05-13T06:43:09.706Z,680.62
2023-05-13T06:44:09.696Z,635.62
2023-05-13T06:45:09.635Z,590.62
2023-05-13T06:46:09.644Z,596.25
2023-05-13T06:47:09.768Z,596.25
2023-05-13T06:48:09.836Z,613.12
2023-05-13T06:49:09.652Z,601.88
2023-05-13T06:50:09.640Z,573.75
2023-05-13T06:51:09.611Z,551.25
2023-05-13T06:52:09.599Z,511.88
2023-05-13T06:53:09.591Z,466.88
2023-05-13T06:54:09.598Z,433.12
2023-05-13T06:55:09.603Z,405.00
2023-05-13T06:56:09.622Z,399.38
2023-05-13T06:57:09.582Z,399.38
2023-05-13T06:58:09.558Z,410.62
2023-05-13T06:59:09.540Z,399.38
2023-05-13T07:00:09.546Z,388.12
2023-05-13T07:01:09.647Z,382.50
2023-05-13T07:02:09.531Z,376.88
2023-05-13T07:03:09.515Z,388.12
2023-05-13T07:04:09.665Z,382.50
2023-05-13T07:05:11.162Z,399.38
2023-05-13T07:06:10.521Z,410.62
2023-05-13T07:07:09.529Z,421.88
2023-05-13T07:08:09.969Z,444.38
2023-05-13T07:09:09.494Z,489.38
2023-05-13T07:10:09.463Z,523.12
2023-05-13T07:11:09.450Z,551.25
2023-05-13T07:12:09.474Z,613.12
2023-05-13T07:13:09.441Z,686.25
2023-05-13T07:14:09.467Z,781.88
2023-05-13T07:15:09.434Z,871.88
2023-05-13T07:16:09.432Z,1057.50
2023-05-13T07:17:09.409Z,1383.75
2023-05-13T07:18:09.651Z,1963.12
2023-05-13T07:19:09.492Z,2975.62
2023-05-13T07:20:09.374Z,1608.75
2023-05-13T07:21:09.401Z,1310.62
2023-05-13T07:22:09.355Z,1558.12
2023-05-13T07:23:09.406Z,1141.88
2023-05-13T07:24:09.357Z,1147.50
2023-05-13T07:25:09.400Z,1158.75
2023-05-13T07:26:09.322Z,1136.25
2023-05-13T07:27:09.320Z,1271.25
2023-05-13T07:28:09.328Z,1237.50
2023-05-13T07:29:09.338Z,1389.38
2023-05-13T07:30:09.290Z,1608.75
2023-05-13T07:31:09.347Z,1794.38
2023-05-13T07:32:09.329Z,1856.25
2023-05-13T07:33:09.375Z,1822.50
2023-05-13T07:34:09.271Z,3881.25
2023-05-13T07:35:09.284Z,4443.75
2023-05-13T07:36:09.257Z,2930.62
2023-05-13T07:37:09.864Z,3735.00
2023-05-13T07:38:09.287Z,4241.25
2023-05-13T07:39:09.220Z,3982.50
2023-05-13T07:40:09.231Z,4117.50
2023-05-13T07:41:09.226Z,4021.88
2023-05-13T07:42:09.220Z,4201.88
2023-05-13T07:43:09.243Z,3819.38
2023-05-13T07:44:09.179Z,4134.38
2023-05-13T07:45:09.259Z,3661.88
2023-05-13T07:46:09.245Z,2233.12
2023-05-13T07:47:09.250Z,1710.00
2023-05-13T07:48:09.225Z,2486.25
2023-05-13T07:49:09.176Z,1890.00
2023-05-13T07:50:09.154Z,1760.62
2023-05-13T07:51:09.145Z,2767.50
2023-05-13T07:52:09.124Z,3943.12
2023-05-13T07:53:09.136Z,2925.00
2023-05-13T07:54:09.178Z,2486.25
2023-05-13T07:55:09.126Z,3785.62
2023-05-13T07:56:09.140Z,3903.75
2023-05-13T07:57:09.084Z,3898.12
2023-05-13T07:58:09.135Z,3864.38
2023-05-13T07:59:09.083Z,3915.00
2023-05-13T08:00:09.107Z,3948.75
2023-05-13T08:01:09.091Z,3993.75
2023-05-13T08:02:09.093Z,4072.50
2023-05-13T08:03:09.150Z,1293.75
2023-05-13T08:04:09.194Z,1788.75
2023-05-13T08:05:09.218Z,1378.12
2023-05-13T08:06:09.032Z,1248.75
2023-05-13T08:07:09.858Z,1428.75
2023-05-13T08:08:09.059Z,2250.00
2023-05-13T08:09:09.010Z,2407.50
2023-05-13T08:10:09.054Z,2660.62
2023-05-13T08:11:09.024Z,2778.75
2023-05-13T08:12:09.023Z,2227.50
2023-05-13T08:13:09.005Z,1749.38
2023-05-13T08:14:08.989Z,1693.12
2023-05-13T08:15:08.987Z,1670.62
2023-05-13T08:16:09.096Z,1676.25
2023-05-13T08:17:08.984Z,1693.12
2023-05-13T08:18:09.047Z,1732.50
2023-05-13T08:19:41.404Z,1378.12
2023-05-13T08:20:41.418Z,1316.25
2023-05-13T08:21:41.006Z,1760.62
2023-05-13T08:22:09.863Z,1743.75
2023-05-13T08:23:45.582Z,1687.50
2023-05-13T08:24:35.490Z,1670.62
2023-05-13T08:25:08.876Z,1631.25
2023-05-13T08:26:41.861Z,1383.75
2023-05-13T08:27:41.563Z,1395.00
2023-05-13T08:28:42.563Z,1507.50
2023-05-13T08:29:08.873Z,1383.75
2023-05-13T08:30:41.603Z,1428.75
2023-05-13T08:31:41.118Z,1417.50
2023-05-13T08:32:08.943Z,1406.25
2023-05-13T08:33:41.758Z,1395.00
2023-05-13T08:34:08.854Z,1406.25
2023-05-13T08:35:08.816Z,1400.62
2023-05-13T08:36:09.536Z,1389.38
2023-05-13T08:37:08.821Z,1383.75
2023-05-13T08:38:08.801Z,1383.75
2023-05-13T08:39:08.815Z,1372.50
2023-05-13T08:40:08.760Z,1378.12
2023-05-13T08:41:08.820Z,1378.12
2023-05-13T08:42:08.763Z,1372.50
2023-05-13T08:43:08.774Z,1355.62
2023-05-13T08:44:08.775Z,1344.38
2023-05-13T08:45:08.795Z,1344.38
2023-05-13T08:46:08.798Z,1333.12
2023-05-13T08:47:08.751Z,1327.50
2023-05-13T08:48:08.841Z,1305.00
2023-05-13T08:49:08.757Z,1293.75
2023-05-13T08:50:09.556Z,1282.50
2023-05-13T08:51:08.765Z,1271.25
2023-05-13T08:52:08.722Z,1271.25
2023-05-13T08:53:08.695Z,1254.38
2023-05-13T08:54:08.679Z,1254.38
2023-05-13T08:55:08.686Z,1248.75
2023-05-13T08:56:08.686Z,1237.50
2023-05-13T08:57:08.668Z,1226.25
2023-05-13T08:58:08.685Z,1215.00
2023-05-13T08:59:08.640Z,1215.00
2023-05-13T09:00:08.664Z,1220.62
2023-05-13T09:01:08.696Z,1220.62
2023-05-13T09:02:08.660Z,1231.88
2023-05-13T09:03:08.692Z,1226.25
2023-05-13T09:04:08.661Z,1220.62
2023-05-13T09:05:08.684Z,1215.00
2023-05-13T09:06:08.613Z,1215.00
2023-05-13T09:07:08.612Z,1209.38
2023-05-13T09:08:08.606Z,1209.38
2023-05-13T09:09:08.607Z,1203.75
2023-05-13T09:10:08.566Z,1203.75
2023-05-13T09:11:08.581Z,1215.00
2023-05-13T09:12:08.540Z,1220.62
2023-05-13T09:13:09.362Z,1220.62
2023-05-13T09:14:08.549Z,1215.00
2023-05-13T09:15:08.575Z,1209.38
2023-05-13T09:16:08.586Z,1198.12
2023-05-13T09:17:08.538Z,1198.12
2023-05-13T09:18:08.576Z,1192.50
2023-05-13T09:19:08.595Z,1192.50
2023-05-13T09:20:08.540Z,1192.50
2023-05-13T09:21:08.557Z,1181.25
2023-05-13T09:22:08.494Z,1170.00
2023-05-13T09:23:08.493Z,1170.00
2023-05-13T09:24:09.531Z,1158.75
2023-05-13T09:25:09.505Z,1147.50
2023-05-13T09:26:08.468Z,1147.50
2023-05-13T09:27:08.481Z,1136.25
2023-05-13T09:28:08.597Z,1130.62
2023-05-13T09:29:08.437Z,1119.38
2023-05-13T09:30:08.447Z,1119.38
2023-05-13T09:31:08.506Z,1119.38
2023-05-13T09:32:08.407Z,1119.38
2023-05-13T09:33:08.596Z,1125.00
2023-05-13T09:34:08.417Z,1113.75
2023-05-13T09:35:08.423Z,860.62
2023-05-13T09:36:08.441Z,1102.50
2023-05-13T09:37:08.423Z,1085.62
2023-05-13T09:38:08.435Z,1074.38
2023-05-13T09:39:08.365Z,669.38
2023-05-13T09:40:08.396Z,635.62
2023-05-13T09:41:08.376Z,1046.25
2023-05-13T09:42:08.344Z,1046.25
2023-05-13T09:43:08.324Z,1040.62
2023-05-13T09:44:08.299Z,1035.00
2023-05-13T09:45:09.315Z,1006.88
2023-05-13T09:46:08.317Z,1040.62
2023-05-13T09:47:09.403Z,995.62
2023-05-13T09:48:08.337Z,1040.62
2023-05-13T09:49:08.314Z,1018.12
2023-05-13T09:50:08.283Z,1012.50
2023-05-13T09:51:08.233Z,1001.25
2023-05-13T09:52:08.276Z,995.62
2023-05-13T09:53:08.272Z,922.50
2023-05-13T09:54:08.319Z,686.25
2023-05-13T09:55:08.272Z,916.88
2023-05-13T09:56:08.253Z,995.62
2023-05-13T09:57:08.254Z,691.88
2023-05-13T09:58:08.234Z,1001.25
2023-05-13T09:59:08.274Z,1012.50
2023-05-13T10:00:12.806Z,1035.00
2023-05-13T10:01:10.255Z,1023.75
2023-05-13T10:02:08.225Z,1018.12
2023-05-13T10:03:08.232Z,1029.38
2023-05-13T10:04:08.223Z,995.62
2023-05-13T10:05:08.193Z,607.50
2023-05-13T10:06:08.162Z,596.25
2023-05-13T10:07:08.160Z,630.00
2023-05-13T10:08:08.138Z,663.75
2023-05-13T10:09:08.146Z,1001.25
2023-05-13T10:10:08.158Z,630.00
2023-05-13T10:11:08.138Z,635.62
2023-05-13T10:12:08.099Z,585.00
2023-05-13T10:13:08.762Z,579.38
2023-05-13T10:14:08.118Z,590.62
2023-05-13T10:15:08.106Z,601.88
2023-05-13T10:16:08.104Z,613.12
2023-05-13T10:17:08.141Z,624.38
2023-05-13T10:18:08.080Z,967.50
2023-05-13T10:19:08.135Z,978.75
2023-05-13T10:20:08.124Z,967.50
2023-05-13T10:21:08.043Z,967.50
2023-05-13T10:22:08.033Z,950.62
2023-05-13T10:23:08.027Z,630.00
2023-05-13T10:24:08.019Z,945.00
2023-05-13T10:25:08.020Z,680.62
2023-05-13T10:26:08.017Z,686.25
2023-05-13T10:27:07.995Z,703.12
2023-05-13T10:28:07.977Z,680.62
2023-05-13T10:29:08.010Z,714.38
2023-05-13T10:30:07.997Z,663.75
2023-05-13T10:31:08.047Z,635.62
2023-05-13T10:32:08.107Z,675.00
2023-05-13T10:33:08.015Z,905.62
2023-05-13T10:34:07.966Z,630.00
2023-05-13T10:35:07.974Z,590.62
2023-05-13T10:36:07.957Z,596.25
2023-05-13T10:37:07.953Z,596.25
2023-05-13T10:38:07.953Z,613.12
2023-05-13T10:39:07.948Z,630.00
2023-05-13T10:40:07.916Z,770.62
2023-05-13T10:41:07.930Z,748.12
2023-05-13T10:42:07.893Z,860.62
2023-05-13T10:43:07.892Z,888.75
2023-05-13T10:44:09.822Z,877.50
2023-05-13T10:45:08.620Z,866.25
2023-05-13T10:46:07.969Z,821.25
2023-05-13T10:47:07.888Z,579.38
2023-05-13T10:48:08.048Z,838.12
2023-05-13T10:49:07.887Z,826.88
2023-05-13T10:50:07.835Z,826.88
2023-05-13T10:51:07.833Z,832.50
2023-05-13T10:52:07.877Z,832.50
2023-05-13T10:53:07.844Z,821.25
2023-05-13T10:54:07.815Z,815.62
2023-05-13T10:55:07.816Z,815.62
2023-05-13T10:56:08.882Z,810.00
2023-05-13T10:57:07.823Z,798.75
2023-05-13T10:58:07.879Z,781.88
2023-05-13T10:59:08.814Z,793.12
2023-05-13T11:00:07.814Z,545.62
2023-05-13T11:01:07.808Z,540.00
2023-05-13T11:02:07.777Z,540.00
2023-05-13T11:03:07.790Z,534.38
2023-05-13T11:04:07.838Z,540.00
2023-05-13T11:05:07.744Z,545.62
2023-05-13T11:06:07.720Z,551.25
2023-05-13T11:07:07.707Z,540.00
2023-05-13T11:08:07.754Z,556.88
2023-05-13T11:09:07.755Z,725.62
2023-05-13T11:10:07.717Z,478.12
2023-05-13T11:11:07.664Z,466.88
2023-05-13T11:12:07.687Z,478.12
2023-05-13T11:13:07.666Z,528.75
2023-05-13T11:14:08.486Z,528.75
2023-05-13T11:15:08.663Z,545.62
2023-05-13T11:16:07.851Z,590.62
2023-05-13T11:17:07.645Z,731.25
2023-05-13T11:18:07.716Z,742.50
2023-05-13T11:19:07.977Z,748.12
2023-05-13T11:20:07.683Z,765.00
2023-05-13T11:21:07.665Z,680.62
2023-05-13T11:22:07.661Z,759.38
2023-05-13T11:23:07.617Z,748.12
2023-05-13T11:24:07.594Z,731.25
2023-05-13T11:25:07.630Z,725.62
2023-05-13T11:26:08.469Z,646.88
2023-05-13T11:27:07.631Z,703.12
2023-05-13T11:28:07.554Z,680.62
2023-05-13T11:29:07.545Z,613.12
2023-05-13T11:30:07.587Z,635.62
2023-05-13T11:31:07.562Z,675.00
2023-05-13T11:32:07.528Z,675.00
2023-05-13T11:33:07.573Z,652.50
2023-05-13T11:34:07.516Z,658.12
2023-05-13T11:35:07.532Z,652.50
2023-05-13T11:36:07.507Z,658.12
2023-05-13T11:37:07.523Z,663.75
2023-05-13T11:38:07.511Z,669.38
2023-05-13T11:39:07.464Z,675.00
2023-05-13T11:40:07.485Z,675.00
2023-05-13T11:41:07.458Z,680.62
2023-05-13T11:42:07.455Z,680.62
2023-05-13T11:43:07.463Z,686.25
2023-05-13T11:44:07.458Z,680.62
2023-05-13T11:45:07.473Z,675.00
2023-05-13T11:46:07.445Z,680.62
2023-05-13T11:47:07.440Z,691.88
2023-05-13T11:48:07.456Z,697.50
2023-05-13T11:49:07.562Z,714.38
2023-05-13T11:50:08.402Z,714.38
2023-05-13T11:51:07.429Z,714.38
2023-05-13T11:52:07.369Z,708.75
2023-05-13T11:53:07.364Z,708.75
2023-05-13T11:54:07.351Z,708.75
2023-05-13T11:55:07.411Z,697.50
2023-05-13T11:56:07.341Z,708.75
2023-05-13T11:57:07.333Z,590.62
2023-05-13T11:58:07.327Z,708.75
2023-05-13T11:59:07.317Z,720.00
2023-05-13T12:00:07.368Z,708.75
2023-05-13T12:01:07.335Z,686.25
2023-05-13T12:02:07.326Z,675.00
2023-05-13T12:03:07.343Z,472.50
2023-05-13T12:04:07.292Z,461.25
2023-05-13T12:05:07.340Z,568.12
2023-05-13T12:06:07.279Z,652.50
2023-05-13T12:07:07.245Z,641.25
2023-05-13T12:08:07.271Z,658.12
2023-05-13T12:09:07.279Z,658.12
2023-05-13T12:10:07.262Z,658.12
2023-05-13T12:11:07.294Z,658.12
2023-05-13T12:12:07.234Z,658.12
2023-05-13T12:13:07.259Z,663.75
2023-05-13T12:14:07.184Z,663.75
2023-05-13T12:15:07.195Z,663.75
2023-05-13T12:16:07.300Z,675.00
2023-05-13T12:17:07.193Z,675.00
2023-05-13T12:18:40.277Z,675.00
2023-05-13T12:19:07.964Z,680.62
2023-05-13T12:20:07.142Z,669.38
2023-05-13T12:21:07.147Z,669.38
2023-05-13T12:22:07.164Z,675.00
2023-05-13T12:23:07.848Z,675.00
2023-05-13T12:24:07.147Z,663.75
2023-05-13T12:25:07.159Z,652.50
2023-05-13T12:26:07.132Z,646.88
2023-05-13T12:27:08.634Z,405.00
2023-05-13T12:28:07.126Z,641.25
2023-05-13T12:29:07.077Z,382.50
2023-05-13T12:30:07.071Z,646.88
2023-05-13T12:31:07.110Z,635.62
2023-05-13T12:32:07.069Z,630.00
2023-05-13T12:33:07.084Z,641.25
2023-05-13T12:34:07.104Z,635.62
2023-05-13T12:35:07.062Z,635.62
2023-05-13T12:36:07.036Z,635.62
2023-05-13T12:37:07.078Z,630.00
2023-05-13T12:38:07.004Z,630.00
2023-05-13T12:39:07.049Z,630.00
2023-05-13T12:40:06.983Z,630.00
2023-05-13T12:41:06.984Z,635.62
2023-05-13T12:42:06.988Z,635.62
2023-05-13T12:43:06.987Z,635.62
2023-05-13T12:44:06.988Z,630.00
2023-05-13T12:45:06.996Z,405.00
2023-05-13T12:46:06.969Z,365.62
2023-05-13T12:47:07.051Z,641.25
2023-05-13T12:48:06.939Z,641.25
2023-05-13T12:49:06.969Z,641.25
2023-05-13T12:50:06.937Z,635.62
2023-05-13T12:51:06.893Z,635.62
2023-05-13T12:52:06.908Z,635.62
2023-05-13T12:53:06.900Z,635.62
2023-05-13T12:54:06.920Z,630.00
2023-05-13T12:55:06.919Z,624.38